sensor_id;sensor_type;location;lat;lon;timestamp;pressure;altitude;pressure_sealevel;temperature;humidity
80124;BME280;69433;48.642;9.142;2023-04-25T17:47:39;96777.38;;;23.52;35.36
80124;BME280;69433;48.642;9.142;2023-04-25T17:50:06;96779.25;;;23.32;35.59
80124;BME280;69433;48.642;9.142;2023-04-25T17:52:31;96774.81;;;23.25;35.76
80124;BME280;69433;48.642;9.142;2023-04-25T17:54:58;96780.44;;;23.31;35.20
80124;BME280;69433;48.642;9.142;2023-04-25T17:57:25;96772.59;;;23.40;35.65
80124;BME280;69433;48.642;9.142;2023-04-25T17:59:51;96775.88;;;23.48;35.36
80124;BME280;69433;48.642;9.142;2023-04-25T18:02:16;96780.72;;;23.56;35.40
80124;BME280;69433;48.642;9.142;2023-04-25T18:04:44;96785.19;;;23.63;35.11
80124;BME280;69433;48.642;9.142;2023-04-25T18:07:10;96793.50;;;23.68;35.08
80124;BME280;69433;48.642;9.142;2023-04-25T18:09:37;96794.22;;;23.73;34.84
80124;BME280;69433;48.642;9.142;2023-04-25T18:12:09;96802.50;;;23.78;34.71
80124;BME280;69433;48.642;9.142;2023-04-25T18:14:35;96814.72;;;23.83;34.68
80124;BME280;69433;48.642;9.142;2023-04-25T18:17:08;96806.56;;;23.86;34.81
80124;BME280;69433;48.642;9.142;2023-04-25T18:19:36;96816.13;;;23.87;34.86
80124;BME280;69433;48.642;9.142;2023-04-25T18:22:01;96819.91;;;23.90;34.86
80124;BME280;69433;48.642;9.142;2023-04-25T18:24:27;96825.19;;;23.93;34.62
80124;BME280;69433;48.642;9.142;2023-04-25T18:26:53;96826.72;;;23.94;34.56
80124;BME280;69433;48.642;9.142;2023-04-25T18:29:27;96826.66;;;23.98;34.46
80124;BME280;69433;48.642;9.142;2023-04-25T18:31:53;96833.53;;;23.99;34.63
80124;BME280;69433;48.642;9.142;2023-04-25T18:34:18;96835.06;;;24.00;34.61
80124;BME280;69433;48.642;9.142;2023-04-25T18:36:52;96839.25;;;24.01;34.24
80124;BME280;69433;48.642;9.142;2023-04-25T18:39:19;96842.69;;;24.01;34.56
80124;BME280;69433;48.642;9.142;2023-04-25T18:41:45;96839.25;;;24.01;34.67
80124;BME280;69433;48.642;9.142;2023-04-25T18:44:11;96841.94;;;24.01;34.58
80124;BME280;69433;48.642;9.142;2023-04-25T18:46:36;96840.41;;;24.00;34.39
80124;BME280;69433;48.642;9.142;2023-04-25T18:49:01;96840.84;;;23.98;34.93
80124;BME280;69433;48.642;9.142;2023-04-25T18:51:28;96845.09;;;23.96;34.77
80124;BME280;69433;48.642;9.142;2023-04-25T18:53:56;96846.63;;;23.97;34.75
80124;BME280;69433;48.642;9.142;2023-04-25T18:56:22;96859.69;;;23.95;34.88
80124;BME280;69433;48.642;9.142;2023-04-25T18:58:50;96865.81;;;23.95;34.65
80124;BME280;69433;48.642;9.142;2023-04-25T19:01:16;96865.81;;;23.95;34.86
80124;BME280;69433;48.642;9.142;2023-04-25T19:03:42;96878.06;;;23.96;34.76
80124;BME280;69433;48.642;9.142;2023-04-25T19:06:08;96881.88;;;23.99;34.71
80124;BME280;69433;48.642;9.142;2023-04-25T19:08:34;96880.69;;;24.00;34.70
80124;BME280;69433;48.642;9.142;2023-04-25T19:10:59;96883.38;;;24.00;34.71
80124;BME280;69433;48.642;9.142;2023-04-25T19:13:26;96892.13;;;24.04;34.83
80124;BME280;69433;48.642;9.142;2023-04-25T19:15:52;96889.09;;;24.02;34.81
80124;BME280;69433;48.642;9.142;2023-04-25T19:18:18;96897.91;;;24.02;34.74
80124;BME280;69433;48.642;9.142;2023-04-25T19:20:44;96906.31;;;24.04;34.82
80124;BME280;69433;48.642;9.142;2023-04-25T19:23:11;96905.53;;;24.04;34.75
80124;BME280;69433;48.642;9.142;2023-04-25T19:25:37;96897.84;;;24.06;34.80
80124;BME280;69433;48.642;9.142;2023-04-25T19:28:03;96903.19;;;24.06;34.55
80124;BME280;69433;48.642;9.142;2023-04-25T19:30:29;96903.19;;;24.06;34.86
80124;BME280;69433;48.642;9.142;2023-04-25T19:32:55;96891.72;;;24.05;34.90
80124;BME280;69433;48.642;9.142;2023-04-25T19:35:21;96893.97;;;24.07;34.85
80124;BME280;69433;48.642;9.142;2023-04-25T19:37:49;96887.91;;;24.03;34.87
80124;BME280;69433;48.642;9.142;2023-04-25T19:40:22;96908.03;;;23.95;34.71
80124;BME280;69433;48.642;9.142;2023-04-25T19:42:48;96903.06;;;23.93;34.88
80124;BME280;69433;48.642;9.142;2023-04-25T19:45:13;96911.69;;;23.85;34.65
80124;BME280;69433;48.642;9.142;2023-04-25T19:47:40;96906.81;;;23.80;34.96
80124;BME280;69433;48.642;9.142;2023-04-25T19:50:06;96921.34;;;23.82;34.89
80124;BME280;69433;48.642;9.142;2023-04-25T19:52:34;96920.91;;;23.84;34.80
80124;BME280;69433;48.642;9.142;2023-04-25T19:55:00;96922.00;;;23.86;34.87
80124;BME280;69433;48.642;9.142;2023-04-25T19:57:30;96921.25;;;23.86;34.77
80124;BME280;69433;48.642;9.142;2023-04-25T20:00:00;96920.44;;;23.89;34.66
80124;BME280;69433;48.642;9.142;2023-04-25T20:02:26;96919.66;;;23.88;34.80
80124;BME280;69433;48.642;9.142;2023-04-25T20:04:52;96923.13;;;23.89;34.57
80124;BME280;69433;48.642;9.142;2023-04-25T20:07:20;96918.50;;;23.89;34.78
80124;BME280;69433;48.642;9.142;2023-04-25T20:09:47;96928.84;;;23.91;34.69
80124;BME280;69433;48.642;9.142;2023-04-25T20:12:12;96932.28;;;23.91;34.58
80124;BME280;69433;48.642;9.142;2023-04-25T20:14:38;96924.22;;;23.91;34.74
80124;BME280;69433;48.642;9.142;2023-04-25T20:17:04;96926.91;;;23.91;34.55
80124;BME280;69433;48.642;9.142;2023-04-25T20:19:29;96925.38;;;23.90;34.64
80124;BME280;69433;48.642;9.142;2023-04-25T20:21:57;96924.22;;;23.91;34.53
80124;BME280;69433;48.642;9.142;2023-04-25T20:24:22;96932.28;;;23.91;34.41
80124;BME280;69433;48.642;9.142;2023-04-25T20:26:48;96936.91;;;23.91;34.64
80124;BME280;69433;48.642;9.142;2023-04-25T20:29:14;96941.09;;;23.92;34.61
80124;BME280;69433;48.642;9.142;2023-04-25T20:31:39;96937.25;;;23.93;34.56
80124;BME280;69433;48.642;9.142;2023-04-25T20:34:05;96936.47;;;23.92;34.74
80124;BME280;69433;48.642;9.142;2023-04-25T20:36:30;96942.25;;;23.91;34.57
80124;BME280;69433;48.642;9.142;2023-04-25T20:38:57;96939.94;;;23.93;34.53
80124;BME280;69433;48.642;9.142;2023-04-25T20:41:22;96938.81;;;23.90;34.55
80124;BME280;69433;48.642;9.142;2023-04-25T20:43:48;96938.41;;;23.92;34.68
80124;BME280;69433;48.642;9.142;2023-04-25T20:46:14;96939.56;;;23.91;34.47
80124;BME280;69433;48.642;9.142;2023-04-25T20:48:40;96939.56;;;23.91;34.48
80124;BME280;69433;48.642;9.142;2023-04-25T20:51:06;96941.09;;;23.92;34.61
80124;BME280;69433;48.642;9.142;2023-04-25T20:53:31;96945.72;;;23.91;34.68
80124;BME280;69433;48.642;9.142;2023-04-25T20:55:57;96945.72;;;23.91;34.68
80124;BME280;69433;48.642;9.142;2023-04-25T20:58:23;96948.38;;;23.91;34.55
80124;BME280;69433;48.642;9.142;2023-04-25T21:00:50;96949.16;;;23.92;34.54
80124;BME280;69433;48.642;9.142;2023-04-25T21:03:15;96940.34;;;23.91;34.76
80124;BME280;69433;48.642;9.142;2023-04-25T21:05:47;96941.09;;;23.92;34.47
80124;BME280;69433;48.642;9.142;2023-04-25T21:08:12;96950.31;;;23.91;34.50
80124;BME280;69433;48.642;9.142;2023-04-25T21:10:38;96953.00;;;23.91;34.53
80124;BME280;69433;48.642;9.142;2023-04-25T21:13:03;96951.47;;;23.90;34.45
80124;BME280;69433;48.642;9.142;2023-04-25T21:15:29;96960.28;;;23.90;34.77
80124;BME280;69433;48.642;9.142;2023-04-25T21:17:54;96960.28;;;23.90;34.56
80124;BME280;69433;48.642;9.142;2023-04-25T21:20:20;96959.53;;;23.90;34.50
80124;BME280;69433;48.642;9.142;2023-04-25T21:22:47;96960.69;;;23.89;34.45
80124;BME280;69433;48.642;9.142;2023-04-25T21:25:14;96958.03;;;23.89;34.72
80124;BME280;69433;48.642;9.142;2023-04-25T21:27:43;96956.16;;;23.86;34.52
80124;BME280;69433;48.642;9.142;2023-04-25T21:30:11;96950.44;;;23.84;34.73
80124;BME280;69433;48.642;9.142;2023-04-25T21:32:37;96958.56;;;23.80;34.59
80124;BME280;69433;48.642;9.142;2023-04-25T21:35:04;96957.44;;;23.78;34.64
80124;BME280;69433;48.642;9.142;2023-04-25T21:37:29;96957.44;;;23.78;34.67
80124;BME280;69433;48.642;9.142;2023-04-25T21:39:54;96950.91;;;23.79;34.67
80124;BME280;69433;48.642;9.142;2023-04-25T21:42:20;96958.97;;;23.79;34.76
80124;BME280;69433;48.642;9.142;2023-04-25T21:44:45;96957.03;;;23.79;34.73
80124;BME280;69433;48.642;9.142;2023-04-25T21:47:10;96954.38;;;23.79;34.87
80124;BME280;69433;48.642;9.142;2023-04-25T21:49:36;96955.13;;;23.80;34.89
80124;BME280;69433;48.642;9.142;2023-04-25T21:52:01;96960.84;;;23.82;34.71
80124;BME280;69433;48.642;9.142;2023-04-25T21:54:28;96963.53;;;23.82;34.79
80124;BME280;69433;48.642;9.142;2023-04-25T21:56:53;96970.41;;;23.83;34.66
80124;BME280;69433;48.642;9.142;2023-04-25T21:59:22;96971.19;;;23.83;34.78
80124;BME280;69433;48.642;9.142;2023-04-25T22:01:47;96971.19;;;23.83;34.76
80124;BME280;69433;48.642;9.142;2023-04-25T22:04:12;96964.59;;;23.84;34.74
80124;BME280;69433;48.642;9.142;2023-04-25T22:06:38;96961.16;;;23.84;34.66
80124;BME280;69433;48.642;9.142;2023-04-25T22:09:05;96966.53;;;23.84;34.74
80124;BME280;69433;48.642;9.142;2023-04-25T22:11:30;96969.56;;;23.86;34.67
80124;BME280;69433;48.642;9.142;2023-04-25T22:13:56;96974.94;;;23.86;34.74
80124;BME280;69433;48.642;9.142;2023-04-25T22:16:21;96974.94;;;23.86;34.28
80124;BME280;69433;48.642;9.142;2023-04-25T22:18:46;96976.47;;;23.87;34.57
80124;BME280;69433;48.642;9.142;2023-04-25T22:21:12;96985.69;;;23.86;34.84
80124;BME280;69433;48.642;9.142;2023-04-25T22:23:37;96981.47;;;23.85;34.68
80124;BME280;69433;48.642;9.142;2023-04-25T22:26:03;96978.78;;;23.85;34.58
80124;BME280;69433;48.642;9.142;2023-04-25T22:28:29;96983.00;;;23.86;34.72
80124;BME280;69433;48.642;9.142;2023-04-25T22:30:54;96991.06;;;23.86;34.60
80124;BME280;69433;48.642;9.142;2023-04-25T22:33:20;96984.50;;;23.87;34.59
80124;BME280;69433;48.642;9.142;2023-04-25T22:35:46;96991.81;;;23.86;34.65
80124;BME280;69433;48.642;9.142;2023-04-25T22:38:11;96997.94;;;23.87;34.80
80124;BME280;69433;48.642;9.142;2023-04-25T22:40:37;96984.50;;;23.87;34.57
80124;BME280;69433;48.642;9.142;2023-04-25T22:43:02;96989.88;;;23.87;34.69
80124;BME280;69433;48.642;9.142;2023-04-25T22:45:27;96987.97;;;23.87;34.59
80124;BME280;69433;48.642;9.142;2023-04-25T22:47:52;96989.13;;;23.86;34.90
80124;BME280;69433;48.642;9.142;2023-04-25T22:50:18;96998.69;;;23.87;34.74
80124;BME280;69433;48.642;9.142;2023-04-25T22:52:45;96991.06;;;23.86;34.73
80124;BME280;69433;48.642;9.142;2023-04-25T22:55:12;96993.34;;;23.87;34.79
80124;BME280;69433;48.642;9.142;2023-04-25T22:57:37;96989.13;;;23.86;34.70
80124;BME280;69433;48.642;9.142;2023-04-25T23:00:07;96995.25;;;23.87;34.92
80124;BME280;69433;48.642;9.142;2023-04-25T23:02:40;96999.88;;;23.86;34.81
80124;BME280;69433;48.642;9.142;2023-04-25T23:05:06;96991.06;;;23.86;34.84
80124;BME280;69433;48.642;9.142;2023-04-25T23:07:31;96995.25;;;23.87;34.93
80124;BME280;69433;48.642;9.142;2023-04-25T23:09:58;96992.16;;;23.88;34.77
80124;BME280;69433;48.642;9.142;2023-04-25T23:12:23;96989.88;;;23.87;34.66
80124;BME280;69433;48.642;9.142;2023-04-25T23:14:49;96992.56;;;23.87;34.64
80124;BME280;69433;48.642;9.142;2023-04-25T23:17:18;96987.97;;;23.87;34.79
80124;BME280;69433;48.642;9.142;2023-04-25T23:19:44;96989.88;;;23.87;34.72
80124;BME280;69433;48.642;9.142;2023-04-25T23:22:10;96997.19;;;23.86;34.83
80124;BME280;69433;48.642;9.142;2023-04-25T23:24:36;96994.09;;;23.88;34.81
80124;BME280;69433;48.642;9.142;2023-04-25T23:27:05;96997.19;;;23.86;34.62
80124;BME280;69433;48.642;9.142;2023-04-25T23:29:31;96999.88;;;23.86;34.83
80124;BME280;69433;48.642;9.142;2023-04-25T23:31:58;96994.09;;;23.88;34.65
80124;BME280;69433;48.642;9.142;2023-04-25T23:34:23;96991.81;;;23.86;34.79
80124;BME280;69433;48.642;9.142;2023-04-25T23:36:49;96995.25;;;23.87;34.67
80124;BME280;69433;48.642;9.142;2023-04-25T23:39:14;96994.50;;;23.86;34.62
80124;BME280;69433;48.642;9.142;2023-04-25T23:41:42;97001.03;;;23.85;34.94
80124;BME280;69433;48.642;9.142;2023-04-25T23:44:08;96997.19;;;23.86;34.63
80124;BME280;69433;48.642;9.142;2023-04-25T23:46:34;97003.38;;;23.83;34.85
80124;BME280;69433;48.642;9.142;2023-04-25T23:49:01;97004.19;;;23.80;35.00
80124;BME280;69433;48.642;9.142;2023-04-25T23:51:29;97008.94;;;23.73;35.34
80124;BME280;69433;48.642;9.142;2023-04-25T23:53:56;97014.31;;;23.73;35.36
80124;BME280;69433;48.642;9.142;2023-04-25T23:56:23;97019.69;;;23.73;35.36
80124;BME280;69433;48.642;9.142;2023-04-25T23:58:49;97022.00;;;23.71;35.46
